sensor_id;sensor_type;location;lat;lon;timestamp;temperature;humidity
11264;DHT22;5689;48.798;9.070;2023-08-12T00:01:53;20.90;99.90
11264;DHT22;5689;48.798;9.070;2023-08-12T00:04:21;20.90;99.90
11264;DHT22;5689;48.798;9.070;2023-08-12T00:06:49;21.00;99.90
11264;DHT22;5689;48.798;9.070;2023-08-12T00:09:17;21.10;99.90
11264;DHT22;5689;48.798;9.070;2023-08-12T00:11:45;20.90;99.90
11264;DHT22;5689;48.798;9.070;2023-08-12T00:14:13;20.80;99.90
11264;DHT22;5689;48.798;9.070;2023-08-12T00:16:41;20.80;99.90
11264;DHT22;5689;48.798;9.070;2023-08-12T00:19:10;20.80;99.90
11264;DHT22;5689;48.798;9.070;2023-08-12T00:21:41;20.80;99.90
11264;DHT22;5689;48.798;9.070;2023-08-12T00:24:09;21.00;99.90
11264;DHT22;5689;48.798;9.070;2023-08-12T00:26:37;21.10;99.90
11264;DHT22;5689;48.798;9.070;2023-08-12T00:29:05;21.10;99.90
11264;DHT22;5689;48.798;9.070;2023-08-12T00:31:34;20.90;99.90
11264;DHT22;5689;48.798;9.070;2023-08-12T00:34:02;20.80;99.90
11264;DHT22;5689;48.798;9.070;2023-08-12T00:36:32;20.70;99.90
11264;DHT22;5689;48.798;9.070;2023-08-12T00:39:01;20.60;99.90
11264;DHT22;5689;48.798;9.070;2023-08-12T00:41:30;20.60;99.90
11264;DHT22;5689;48.798;9.070;2023-08-12T00:43:58;20.60;99.90
11264;DHT22;5689;48.798;9.070;2023-08-12T00:46:26;20.50;99.90
11264;DHT22;5689;48.798;9.070;2023-08-12T00:48:54;20.40;99.90
11264;DHT22;5689;48.798;9.070;2023-08-12T00:51:24;20.30;99.90
11264;DHT22;5689;48.798;9.070;2023-08-12T00:53:54;20.40;99.90
11264;DHT22;5689;48.798;9.070;2023-08-12T00:56:26;20.40;99.90
11264;DHT22;5689;48.798;9.070;2023-08-12T00:58:54;20.30;99.90
11264;DHT22;5689;48.798;9.070;2023-08-12T01:01:22;20.30;99.90
11264;DHT22;5689;48.798;9.070;2023-08-12T01:03:50;20.30;99.90
11264;DHT22;5689;48.798;9.070;2023-08-12T01:06:18;20.20;99.90
11264;DHT22;5689;48.798;9.070;2023-08-12T01:08:47;20.30;99.90
11264;DHT22;5689;48.798;9.070;2023-08-12T01:11:23;20.30;99.90
11264;DHT22;5689;48.798;9.070;2023-08-12T01:14:02;20.20;99.90
11264;DHT22;5689;48.798;9.070;2023-08-12T01:16:36;20.10;99.90
11264;DHT22;5689;48.798;9.070;2023-08-12T01:19:11;20.00;99.90
11264;DHT22;5689;48.798;9.070;2023-08-12T01:21:41;20.10;99.90
11264;DHT22;5689;48.798;9.070;2023-08-12T01:24:12;20.00;99.90
11264;DHT22;5689;48.798;9.070;2023-08-12T01:26:40;20.10;99.90
11264;DHT22;5689;48.798;9.070;2023-08-12T01:29:08;20.20;99.90
11264;DHT22;5689;48.798;9.070;2023-08-12T01:31:41;20.00;99.90
11264;DHT22;5689;48.798;9.070;2023-08-12T01:34:19;20.00;99.90
11264;DHT22;5689;48.798;9.070;2023-08-12T01:36:54;20.00;99.90
11264;DHT22;5689;48.798;9.070;2023-08-12T01:39:26;19.80;99.90
11264;DHT22;5689;48.798;9.070;2023-08-12T01:41:55;19.90;99.90
11264;DHT22;5689;48.798;9.070;2023-08-12T01:44:24;19.90;99.90
11264;DHT22;5689;48.798;9.070;2023-08-12T01:46:52;19.90;99.90
11264;DHT22;5689;48.798;9.070;2023-08-12T01:49:21;19.90;99.90
11264;DHT22;5689;48.798;9.070;2023-08-12T01:51:50;19.80;99.90
11264;DHT22;5689;48.798;9.070;2023-08-12T01:54:18;19.70;99.90
11264;DHT22;5689;48.798;9.070;2023-08-12T01:56:48;19.70;99.90
11264;DHT22;5689;48.798;9.070;2023-08-12T01:59:16;19.90;99.90
11264;DHT22;5689;48.798;9.070;2023-08-12T02:01:44;19.80;99.90
11264;DHT22;5689;48.798;9.070;2023-08-12T02:04:12;19.80;99.90
11264;DHT22;5689;48.798;9.070;2023-08-12T02:06:41;19.70;99.90
11264;DHT22;5689;48.798;9.070;2023-08-12T02:09:09;19.70;99.90
11264;DHT22;5689;48.798;9.070;2023-08-12T02:11:37;19.80;99.90
11264;DHT22;5689;48.798;9.070;2023-08-12T02:14:06;19.90;99.90
11264;DHT22;5689;48.798;9.070;2023-08-12T02:16:34;20.00;99.90
11264;DHT22;5689;48.798;9.070;2023-08-12T02:19:02;20.10;99.90
11264;DHT22;5689;48.798;9.070;2023-08-12T02:21:31;20.20;99.90
11264;DHT22;5689;48.798;9.070;2023-08-12T02:23:59;20.20;99.90
11264;DHT22;5689;48.798;9.070;2023-08-12T02:26:27;20.30;99.90
11264;DHT22;5689;48.798;9.070;2023-08-12T02:28:55;20.30;99.90
11264;DHT22;5689;48.798;9.070;2023-08-12T02:31:25;20.20;99.90
11264;DHT22;5689;48.798;9.070;2023-08-12T02:33:53;20.40;99.90
11264;DHT22;5689;48.798;9.070;2023-08-12T02:36:21;20.40;99.90
11264;DHT22;5689;48.798;9.070;2023-08-12T02:38:49;20.30;99.90
11264;DHT22;5689;48.798;9.070;2023-08-12T02:41:17;20.20;99.90
11264;DHT22;5689;48.798;9.070;2023-08-12T02:43:46;20.10;99.90
11264;DHT22;5689;48.798;9.070;2023-08-12T02:46:14;20.10;99.90
11264;DHT22;5689;48.798;9.070;2023-08-12T02:48:43;20.20;99.90
11264;DHT22;5689;48.798;9.070;2023-08-12T02:51:11;20.10;99.90
11264;DHT22;5689;48.798;9.070;2023-08-12T02:53:39;20.10;99.90
11264;DHT22;5689;48.798;9.070;2023-08-12T02:56:08;20.10;99.90
11264;DHT22;5689;48.798;9.070;2023-08-12T02:58:36;20.40;99.90
11264;DHT22;5689;48.798;9.070;2023-08-12T03:01:04;20.40;99.90
11264;DHT22;5689;48.798;9.070;2023-08-12T03:03:33;20.10;99.90
11264;DHT22;5689;48.798;9.070;2023-08-12T03:06:02;19.90;99.90
11264;DHT22;5689;48.798;9.070;2023-08-12T03:08:30;19.80;99.90
11264;DHT22;5689;48.798;9.070;2023-08-12T03:10:59;19.90;99.90
11264;DHT22;5689;48.798;9.070;2023-08-12T03:13:28;20.10;99.90
11264;DHT22;5689;48.798;9.070;2023-08-12T03:15:57;20.20;99.90
11264;DHT22;5689;48.798;9.070;2023-08-12T03:18:25;20.40;99.90
11264;DHT22;5689;48.798;9.070;2023-08-12T03:20:53;20.40;99.90
11264;DHT22;5689;48.798;9.070;2023-08-12T03:23:25;20.40;99.90
11264;DHT22;5689;48.798;9.070;2023-08-12T03:25:54;20.30;99.90
11264;DHT22;5689;48.798;9.070;2023-08-12T03:28:22;19.90;99.90
11264;DHT22;5689;48.798;9.070;2023-08-12T03:30:51;19.60;99.90
11264;DHT22;5689;48.798;9.070;2023-08-12T03:33:21;19.80;99.90
11264;DHT22;5689;48.798;9.070;2023-08-12T03:35:49;19.90;99.90
11264;DHT22;5689;48.798;9.070;2023-08-12T03:38:17;19.90;99.90
11264;DHT22;5689;48.798;9.070;2023-08-12T03:40:47;20.00;99.90
11264;DHT22;5689;48.798;9.070;2023-08-12T03:43:17;20.00;99.90
11264;DHT22;5689;48.798;9.070;2023-08-12T03:45:46;20.10;99.90
11264;DHT22;5689;48.798;9.070;2023-08-12T03:48:17;20.10;99.90
11264;DHT22;5689;48.798;9.070;2023-08-12T03:50:45;20.20;99.90
11264;DHT22;5689;48.798;9.070;2023-08-12T03:53:14;20.10;99.90
11264;DHT22;5689;48.798;9.070;2023-08-12T03:55:42;20.10;99.90
11264;DHT22;5689;48.798;9.070;2023-08-12T03:58:15;20.30;99.90
11264;DHT22;5689;48.798;9.070;2023-08-12T04:00:43;20.40;99.90
11264;DHT22;5689;48.798;9.070;2023-08-12T04:03:14;20.40;99.90
11264;DHT22;5689;48.798;9.070;2023-08-12T04:05:47;20.40;99.90
11264;DHT22;5689;48.798;9.070;2023-08-12T04:08:16;19.90;99.90
11264;DHT22;5689;48.798;9.070;2023-08-12T04:10:45;19.70;99.90
11264;DHT22;5689;48.798;9.070;2023-08-12T04:13:15;19.70;99.90
11264;DHT22;5689;48.798;9.070;2023-08-12T04:15:48;19.90;99.90
11264;DHT22;5689;48.798;9.070;2023-08-12T04:18:17;20.10;99.90
11264;DHT22;5689;48.798;9.070;2023-08-12T04:20:45;20.00;99.90
11264;DHT22;5689;48.798;9.070;2023-08-12T04:23:13;20.10;99.90
11264;DHT22;5689;48.798;9.070;2023-08-12T04:25:43;20.20;99.90
11264;DHT22;5689;48.798;9.070;2023-08-12T04:28:12;20.10;99.90
11264;DHT22;5689;48.798;9.070;2023-08-12T04:30:42;20.10;99.90
11264;DHT22;5689;48.798;9.070;2023-08-12T04:33:12;20.30;99.90
11264;DHT22;5689;48.798;9.070;2023-08-12T04:35:40;20.40;99.90
11264;DHT22;5689;48.798;9.070;2023-08-12T04:38:09;20.40;99.90
11264;DHT22;5689;48.798;9.070;2023-08-12T04:40:39;20.50;99.90
11264;DHT22;5689;48.798;9.070;2023-08-12T04:43:08;20.50;99.90
11264;DHT22;5689;48.798;9.070;2023-08-12T04:45:36;20.50;99.90
11264;DHT22;5689;48.798;9.070;2023-08-12T04:48:07;20.50;99.90
11264;DHT22;5689;48.798;9.070;2023-08-12T04:50:37;20.60;99.90
11264;DHT22;5689;48.798;9.070;2023-08-12T04:53:05;20.70;99.90
11264;DHT22;5689;48.798;9.070;2023-08-12T04:55:34;20.70;99.90
11264;DHT22;5689;48.798;9.070;2023-08-12T04:58:03;20.70;99.90
11264;DHT22;5689;48.798;9.070;2023-08-12T05:00:31;20.60;99.90
11264;DHT22;5689;48.798;9.070;2023-08-12T05:03:00;20.50;99.90
11264;DHT22;5689;48.798;9.070;2023-08-12T05:05:30;20.20;99.90
11264;DHT22;5689;48.798;9.070;2023-08-12T05:07:58;20.30;99.90
11264;DHT22;5689;48.798;9.070;2023-08-12T05:10:26;20.40;99.90
11264;DHT22;5689;48.798;9.070;2023-08-12T05:12:56;20.50;99.90
11264;DHT22;5689;48.798;9.070;2023-08-12T05:15:25;20.40;99.90
11264;DHT22;5689;48.798;9.070;2023-08-12T05:17:54;20.40;99.90
11264;DHT22;5689;48.798;9.070;2023-08-12T05:20:23;20.50;99.90
11264;DHT22;5689;48.798;9.070;2023-08-12T05:22:52;20.50;99.90
11264;DHT22;5689;48.798;9.070;2023-08-12T05:25:20;20.60;99.90
11264;DHT22;5689;48.798;9.070;2023-08-12T05:27:49;20.70;99.90
11264;DHT22;5689;48.798;9.070;2023-08-12T05:30:17;20.80;99.90
11264;DHT22;5689;48.798;9.070;2023-08-12T05:32:45;21.00;99.90
11264;DHT22;5689;48.798;9.070;2023-08-12T05:35:14;20.80;99.90
11264;DHT22;5689;48.798;9.070;2023-08-12T05:37:42;20.70;99.90
11264;DHT22;5689;48.798;9.070;2023-08-12T05:40:12;20.70;99.90
11264;DHT22;5689;48.798;9.070;2023-08-12T05:42:40;20.50;99.90
11264;DHT22;5689;48.798;9.070;2023-08-12T05:45:09;20.50;99.90
11264;DHT22;5689;48.798;9.070;2023-08-12T05:47:37;20.50;99.90
11264;DHT22;5689;48.798;9.070;2023-08-12T05:50:06;20.60;99.90
11264;DHT22;5689;48.798;9.070;2023-08-12T05:52:38;20.70;99.90
11264;DHT22;5689;48.798;9.070;2023-08-12T05:55:08;20.80;99.90
11264;DHT22;5689;48.798;9.070;2023-08-12T05:57:40;20.90;99.90
11264;DHT22;5689;48.798;9.070;2023-08-12T06:00:09;21.00;99.90
11264;DHT22;5689;48.798;9.070;2023-08-12T06:02:38;21.00;99.90
11264;DHT22;5689;48.798;9.070;2023-08-12T06:05:08;20.80;99.90
11264;DHT22;5689;48.798;9.070;2023-08-12T06:07:36;20.90;99.90
11264;DHT22;5689;48.798;9.070;2023-08-12T06:10:05;20.90;99.90
11264;DHT22;5689;48.798;9.070;2023-08-12T06:12:33;20.80;99.90
11264;DHT22;5689;48.798;9.070;2023-08-12T06:15:04;20.80;99.90
11264;DHT22;5689;48.798;9.070;2023-08-12T06:17:32;21.10;99.90
11264;DHT22;5689;48.798;9.070;2023-08-12T06:20:00;21.10;99.90
11264;DHT22;5689;48.798;9.070;2023-08-12T06:22:28;21.10;99.90
11264;DHT22;5689;48.798;9.070;2023-08-12T06:24:56;21.20;99.90
11264;DHT22;5689;48.798;9.070;2023-08-12T06:27:24;21.50;99.90
11264;DHT22;5689;48.798;9.070;2023-08-12T06:29:52;21.60;99.90
11264;DHT22;5689;48.798;9.070;2023-08-12T06:32:22;21.70;99.90
11264;DHT22;5689;48.798;9.070;2023-08-12T06:34:50;22.00;99.90
11264;DHT22;5689;48.798;9.070;2023-08-12T06:37:19;22.40;99.90
11264;DHT22;5689;48.798;9.070;2023-08-12T06:39:47;22.50;99.90
11264;DHT22;5689;48.798;9.070;2023-08-12T06:42:15;22.80;99.90
11264;DHT22;5689;48.798;9.070;2023-08-12T06:44:45;23.30;99.90
11264;DHT22;5689;48.798;9.070;2023-08-12T06:47:13;24.00;99.90
11264;DHT22;5689;48.798;9.070;2023-08-12T06:49:45;24.40;99.90
11264;DHT22;5689;48.798;9.070;2023-08-12T06:52:14;24.80;99.90
11264;DHT22;5689;48.798;9.070;2023-08-12T06:54:43;25.20;99.90
11264;DHT22;5689;48.798;9.070;2023-08-12T06:57:11;25.70;99.90
11264;DHT22;5689;48.798;9.070;2023-08-12T06:59:40;26.30;99.90
11264;DHT22;5689;48.798;9.070;2023-08-12T07:02:08;26.60;99.90
11264;DHT22;5689;48.798;9.070;2023-08-12T07:04:36;26.50;99.90
11264;DHT22;5689;48.798;9.070;2023-08-12T07:07:05;26.00;99.90
11264;DHT22;5689;48.798;9.070;2023-08-12T07:09:33;24.80;99.90
11264;DHT22;5689;48.798;9.070;2023-08-12T07:12:01;25.00;99.90
11264;DHT22;5689;48.798;9.070;2023-08-12T07:14:30;25.50;99.90
11264;DHT22;5689;48.798;9.070;2023-08-12T07:16:58;25.60;99.90
11264;DHT22;5689;48.798;9.070;2023-08-12T07:19:26;25.50;99.90
11264;DHT22;5689;48.798;9.070;2023-08-12T07:21:54;25.30;99.90
11264;DHT22;5689;48.798;9.070;2023-08-12T07:24:23;25.90;99.90
11264;DHT22;5689;48.798;9.070;2023-08-12T07:26:51;27.40;99.90
11264;DHT22;5689;48.798;9.070;2023-08-12T07:29:19;28.60;99.90
11264;DHT22;5689;48.798;9.070;2023-08-12T07:31:47;28.20;99.90
11264;DHT22;5689;48.798;9.070;2023-08-12T07:34:15;28.40;99.90
11264;DHT22;5689;48.798;9.070;2023-08-12T07:36:43;29.10;99.90
11264;DHT22;5689;48.798;9.070;2023-08-12T07:39:11;30.20;99.90
11264;DHT22;5689;48.798;9.070;2023-08-12T07:41:40;30.80;99.90
11264;DHT22;5689;48.798;9.070;2023-08-12T07:44:08;31.80;99.90
11264;DHT22;5689;48.798;9.070;2023-08-12T07:46:36;30.90;99.90
11264;DHT22;5689;48.798;9.070;2023-08-12T07:49:04;31.20;99.90
11264;DHT22;5689;48.798;9.070;2023-08-12T07:51:32;32.30;99.50
11264;DHT22;5689;48.798;9.070;2023-08-12T07:54:00;32.20;98.10
11264;DHT22;5689;48.798;9.070;2023-08-12T07:56:28;32.10;98.10
11264;DHT22;5689;48.798;9.070;2023-08-12T07:58:58;32.50;96.00
11264;DHT22;5689;48.798;9.070;2023-08-12T08:01:26;32.30;95.90
11264;DHT22;5689;48.798;9.070;2023-08-12T08:03:54;33.20;94.70
11264;DHT22;5689;48.798;9.070;2023-08-12T08:06:22;33.60;93.90
11264;DHT22;5689;48.798;9.070;2023-08-12T08:08:50;33.30;93.80
11264;DHT22;5689;48.798;9.070;2023-08-12T08:11:18;34.30;92.30
11264;DHT22;5689;48.798;9.070;2023-08-12T08:13:46;33.30;94.40
11264;DHT22;5689;48.798;9.070;2023-08-12T08:16:15;31.90;95.50
11264;DHT22;5689;48.798;9.070;2023-08-12T08:18:43;33.10;92.90
11264;DHT22;5689;48.798;9.070;2023-08-12T08:21:11;32.00;93.20
11264;DHT22;5689;48.798;9.070;2023-08-12T08:23:41;32.90;93.00
11264;DHT22;5689;48.798;9.070;2023-08-12T08:26:09;33.20;92.10
11264;DHT22;5689;48.798;9.070;2023-08-12T08:28:38;34.00;91.10
11264;DHT22;5689;48.798;9.070;2023-08-12T08:31:05;34.80;91.10
11264;DHT22;5689;48.798;9.070;2023-08-12T08:33:35;35.50;89.50
11264;DHT22;5689;48.798;9.070;2023-08-12T08:36:04;35.90;86.40
11264;DHT22;5689;48.798;9.070;2023-08-12T08:38:32;36.90;83.10
11264;DHT22;5689;48.798;9.070;2023-08-12T08:41:00;36.70;83.90
11264;DHT22;5689;48.798;9.070;2023-08-12T08:43:30;36.30;81.30
11264;DHT22;5689;48.798;9.070;2023-08-12T08:46:00;34.70;85.60
11264;DHT22;5689;48.798;9.070;2023-08-12T08:48:28;36.20;84.20
11264;DHT22;5689;48.798;9.070;2023-08-12T08:51:00;37.10;78.90
11264;DHT22;5689;48.798;9.070;2023-08-12T08:53:28;38.00;77.70
11264;DHT22;5689;48.798;9.070;2023-08-12T08:56:00;37.00;78.00
11264;DHT22;5689;48.798;9.070;2023-08-12T08:58:28;37.50;77.90
11264;DHT22;5689;48.798;9.070;2023-08-12T09:00:56;35.90;83.50
11264;DHT22;5689;48.798;9.070;2023-08-12T09:03:25;36.50;81.20
11264;DHT22;5689;48.798;9.070;2023-08-12T09:05:55;37.70;78.20
11264;DHT22;5689;48.798;9.070;2023-08-12T09:08:26;38.80;76.20
11264;DHT22;5689;48.798;9.070;2023-08-12T09:10:55;38.50;74.00
11264;DHT22;5689;48.798;9.070;2023-08-12T09:13:24;38.50;74.30
11264;DHT22;5689;48.798;9.070;2023-08-12T09:15:52;38.50;73.00
11264;DHT22;5689;48.798;9.070;2023-08-12T09:18:20;38.80;71.00
11264;DHT22;5689;48.798;9.070;2023-08-12T09:20:51;37.50;74.90
11264;DHT22;5689;48.798;9.070;2023-08-12T09:23:19;37.90;75.60
11264;DHT22;5689;48.798;9.070;2023-08-12T09:25:48;37.80;74.30
11264;DHT22;5689;48.798;9.070;2023-08-12T09:28:16;38.40;71.70
11264;DHT22;5689;48.798;9.070;2023-08-12T09:30:50;40.00;66.40
11264;DHT22;5689;48.798;9.070;2023-08-12T09:33:25;39.90;61.50
11264;DHT22;5689;48.798;9.070;2023-08-12T09:35:54;38.70;62.60
11264;DHT22;5689;48.798;9.070;2023-08-12T09:38:23;38.70;62.40
11264;DHT22;5689;48.798;9.070;2023-08-12T09:40:53;38.70;62.00
11264;DHT22;5689;48.798;9.070;2023-08-12T09:43:23;37.40;64.90
11264;DHT22;5689;48.798;9.070;2023-08-12T09:45:55;36.90;64.00
11264;DHT22;5689;48.798;9.070;2023-08-12T09:48:23;35.80;70.70
11264;DHT22;5689;48.798;9.070;2023-08-12T09:50:52;34.40;72.10
11264;DHT22;5689;48.798;9.070;2023-08-12T09:53:21;33.30;72.80
11264;DHT22;5689;48.798;9.070;2023-08-12T09:55:53;33.00;73.80
11264;DHT22;5689;48.798;9.070;2023-08-12T09:58:23;32.90;74.50
11264;DHT22;5689;48.798;9.070;2023-08-12T10:00:52;32.40;76.40
11264;DHT22;5689;48.798;9.070;2023-08-12T10:03:21;32.30;79.60
11264;DHT22;5689;48.798;9.070;2023-08-12T10:05:50;31.80;84.80
11264;DHT22;5689;48.798;9.070;2023-08-12T10:08:18;30.70;84.20
11264;DHT22;5689;48.798;9.070;2023-08-12T10:10:47;30.50;87.10
11264;DHT22;5689;48.798;9.070;2023-08-12T10:13:21;30.80;88.00
11264;DHT22;5689;48.798;9.070;2023-08-12T10:15:49;30.90;85.90
11264;DHT22;5689;48.798;9.070;2023-08-12T10:18:18;30.90;87.20
11264;DHT22;5689;48.798;9.070;2023-08-12T10:20:48;30.90;87.00
11264;DHT22;5689;48.798;9.070;2023-08-12T10:23:17;30.90;88.70
11264;DHT22;5689;48.798;9.070;2023-08-12T10:25:45;31.10;86.70
11264;DHT22;5689;48.798;9.070;2023-08-12T10:28:14;31.10;87.20
11264;DHT22;5689;48.798;9.070;2023-08-12T10:30:47;32.10;84.90
11264;DHT22;5689;48.798;9.070;2023-08-12T10:33:15;32.50;83.50
11264;DHT22;5689;48.798;9.070;2023-08-12T10:35:46;33.90;81.40
11264;DHT22;5689;48.798;9.070;2023-08-12T10:38:17;34.50;77.10
11264;DHT22;5689;48.798;9.070;2023-08-12T10:40:46;34.60;76.20
11264;DHT22;5689;48.798;9.070;2023-08-12T10:43:14;35.70;74.30
11264;DHT22;5689;48.798;9.070;2023-08-12T10:45:48;35.90;74.20
11264;DHT22;5689;48.798;9.070;2023-08-12T10:48:17;35.00;75.50
11264;DHT22;5689;48.798;9.070;2023-08-12T10:50:51;34.70;75.00
11264;DHT22;5689;48.798;9.070;2023-08-12T10:53:24;33.90;74.90
11264;DHT22;5689;48.798;9.070;2023-08-12T10:55:57;33.50;77.80
11264;DHT22;5689;48.798;9.070;2023-08-12T10:58:30;35.50;72.80
11264;DHT22;5689;48.798;9.070;2023-08-12T11:00:59;36.60;70.30
11264;DHT22;5689;48.798;9.070;2023-08-12T11:03:32;35.80;69.10
11264;DHT22;5689;48.798;9.070;2023-08-12T11:06:02;35.20;70.60
11264;DHT22;5689;48.798;9.070;2023-08-12T11:08:30;34.40;73.30
11264;DHT22;5689;48.798;9.070;2023-08-12T11:11:02;36.40;70.30
11264;DHT22;5689;48.798;9.070;2023-08-12T11:13:30;37.70;67.40
11264;DHT22;5689;48.798;9.070;2023-08-12T11:16:17;36.80;67.10
11264;DHT22;5689;48.798;9.070;2023-08-12T11:18:46;34.90;69.50
11264;DHT22;5689;48.798;9.070;2023-08-12T11:21:14;33.90;73.00
11264;DHT22;5689;48.798;9.070;2023-08-12T11:23:43;33.20;73.80
11264;DHT22;5689;48.798;9.070;2023-08-12T11:26:13;32.60;74.40
11264;DHT22;5689;48.798;9.070;2023-08-12T11:28:44;32.30;75.10
11264;DHT22;5689;48.798;9.070;2023-08-12T11:31:12;33.30;74.50
11264;DHT22;5689;48.798;9.070;2023-08-12T11:33:45;36.00;69.70
11264;DHT22;5689;48.798;9.070;2023-08-12T11:36:14;37.80;66.40
11264;DHT22;5689;48.798;9.070;2023-08-12T11:38:42;39.60;62.80
11264;DHT22;5689;48.798;9.070;2023-08-12T11:41:11;39.00;62.30
11264;DHT22;5689;48.798;9.070;2023-08-12T11:43:39;36.20;68.20
11264;DHT22;5689;48.798;9.070;2023-08-12T11:46:08;36.10;68.00
11264;DHT22;5689;48.798;9.070;2023-08-12T11:48:36;36.20;68.40
11264;DHT22;5689;48.798;9.070;2023-08-12T11:51:09;36.90;66.80
11264;DHT22;5689;48.798;9.070;2023-08-12T11:53:37;35.80;69.10
11264;DHT22;5689;48.798;9.070;2023-08-12T11:56:06;35.90;71.90
11264;DHT22;5689;48.798;9.070;2023-08-12T11:58:37;34.50;78.00
11264;DHT22;5689;48.798;9.070;2023-08-12T12:01:13;32.00;86.10
11264;DHT22;5689;48.798;9.070;2023-08-12T12:03:41;29.90;93.00
11264;DHT22;5689;48.798;9.070;2023-08-12T12:06:12;28.40;96.30
11264;DHT22;5689;48.798;9.070;2023-08-12T12:08:40;27.20;99.80
11264;DHT22;5689;48.798;9.070;2023-08-12T12:11:08;27.30;99.90
11264;DHT22;5689;48.798;9.070;2023-08-12T12:13:37;27.40;99.90
11264;DHT22;5689;48.798;9.070;2023-08-12T12:16:09;26.70;99.90
11264;DHT22;5689;48.798;9.070;2023-08-12T12:18:38;26.50;99.90
11264;DHT22;5689;48.798;9.070;2023-08-12T12:21:06;26.20;99.90
11264;DHT22;5689;48.798;9.070;2023-08-12T12:23:37;25.40;99.90
11264;DHT22;5689;48.798;9.070;2023-08-12T12:26:05;24.00;99.90
11264;DHT22;5689;48.798;9.070;2023-08-12T12:28:33;23.00;99.90
11264;DHT22;5689;48.798;9.070;2023-08-12T12:31:01;22.40;99.90
11264;DHT22;5689;48.798;9.070;2023-08-12T12:33:29;21.70;99.90
11264;DHT22;5689;48.798;9.070;2023-08-12T12:35:57;22.00;99.90
11264;DHT22;5689;48.798;9.070;2023-08-12T12:38:27;21.70;99.90
11264;DHT22;5689;48.798;9.070;2023-08-12T12:40:56;21.90;99.90
11264;DHT22;5689;48.798;9.070;2023-08-12T12:43:24;22.10;99.90
11264;DHT22;5689;48.798;9.070;2023-08-12T12:45:52;22.10;99.90
11264;DHT22;5689;48.798;9.070;2023-08-12T12:48:21;22.30;99.90
11264;DHT22;5689;48.798;9.070;2023-08-12T12:50:49;22.30;99.90
11264;DHT22;5689;48.798;9.070;2023-08-12T12:53:17;22.40;99.90
11264;DHT22;5689;48.798;9.070;2023-08-12T12:55:45;22.90;99.90
11264;DHT22;5689;48.798;9.070;2023-08-12T12:58:15;23.00;99.90
11264;DHT22;5689;48.798;9.070;2023-08-12T13:00:43;22.80;99.90
11264;DHT22;5689;48.798;9.070;2023-08-12T13:03:11;23.10;99.90
11264;DHT22;5689;48.798;9.070;2023-08-12T13:05:39;23.20;99.90
11264;DHT22;5689;48.798;9.070;2023-08-12T13:08:07;23.40;99.90
11264;DHT22;5689;48.798;9.070;2023-08-12T13:10:35;23.60;99.90
11264;DHT22;5689;48.798;9.070;2023-08-12T13:13:04;23.80;99.90
11264;DHT22;5689;48.798;9.070;2023-08-12T13:15:35;23.60;99.90
11264;DHT22;5689;48.798;9.070;2023-08-12T13:18:04;23.40;99.90
11264;DHT22;5689;48.798;9.070;2023-08-12T13:20:32;23.60;99.90
11264;DHT22;5689;48.798;9.070;2023-08-12T13:23:00;23.70;99.90
11264;DHT22;5689;48.798;9.070;2023-08-12T13:25:29;23.80;99.90
11264;DHT22;5689;48.798;9.070;2023-08-12T13:27:58;23.80;99.90
11264;DHT22;5689;48.798;9.070;2023-08-12T13:30:27;23.70;99.90
11264;DHT22;5689;48.798;9.070;2023-08-12T13:32:59;23.80;99.90
11264;DHT22;5689;48.798;9.070;2023-08-12T13:35:28;23.90;99.90
11264;DHT22;5689;48.798;9.070;2023-08-12T13:37:56;23.80;99.90
11264;DHT22;5689;48.798;9.070;2023-08-12T13:40:24;24.00;99.90
11264;DHT22;5689;48.798;9.070;2023-08-12T13:42:53;25.50;99.90
11264;DHT22;5689;48.798;9.070;2023-08-12T13:45:21;29.20;99.90
11264;DHT22;5689;48.798;9.070;2023-08-12T13:47:53;30.50;99.90
11264;DHT22;5689;48.798;9.070;2023-08-12T13:50:23;29.40;99.90
11264;DHT22;5689;48.798;9.070;2023-08-12T13:52:51;29.10;99.90
11264;DHT22;5689;48.798;9.070;2023-08-12T13:55:19;31.70;99.90
11264;DHT22;5689;48.798;9.070;2023-08-12T13:57:47;30.80;99.90
11264;DHT22;5689;48.798;9.070;2023-08-12T14:00:15;30.30;99.90
11264;DHT22;5689;48.798;9.070;2023-08-12T14:02:43;30.20;99.90
11264;DHT22;5689;48.798;9.070;2023-08-12T14:05:11;31.70;99.90
11264;DHT22;5689;48.798;9.070;2023-08-12T14:07:41;34.40;99.90
11264;DHT22;5689;48.798;9.070;2023-08-12T14:10:09;35.70;98.10
11264;DHT22;5689;48.798;9.070;2023-08-12T14:12:37;35.80;98.40
11264;DHT22;5689;48.798;9.070;2023-08-12T14:15:06;36.70;94.90
11264;DHT22;5689;48.798;9.070;2023-08-12T14:17:34;35.20;95.20
11264;DHT22;5689;48.798;9.070;2023-08-12T14:20:02;36.60;93.70
11264;DHT22;5689;48.798;9.070;2023-08-12T14:22:34;37.10;90.70
11264;DHT22;5689;48.798;9.070;2023-08-12T14:25:04;37.20;91.00
11264;DHT22;5689;48.798;9.070;2023-08-12T14:27:32;35.70;91.80
11264;DHT22;5689;48.798;9.070;2023-08-12T14:30:01;35.90;91.70
11264;DHT22;5689;48.798;9.070;2023-08-12T14:32:29;36.80;89.70
11264;DHT22;5689;48.798;9.070;2023-08-12T14:34:57;37.10;89.80
11264;DHT22;5689;48.798;9.070;2023-08-12T14:37:25;37.70;88.90
11264;DHT22;5689;48.798;9.070;2023-08-12T14:39:54;36.30;89.10
11264;DHT22;5689;48.798;9.070;2023-08-12T14:42:23;36.90;86.40
11264;DHT22;5689;48.798;9.070;2023-08-12T14:44:51;35.40;89.90
11264;DHT22;5689;48.798;9.070;2023-08-12T14:47:19;36.30;86.70
11264;DHT22;5689;48.798;9.070;2023-08-12T14:49:48;35.40;88.50
11264;DHT22;5689;48.798;9.070;2023-08-12T14:52:17;36.30;88.40
11264;DHT22;5689;48.798;9.070;2023-08-12T14:54:45;35.40;90.00
11264;DHT22;5689;48.798;9.070;2023-08-12T14:57:14;37.10;86.80
11264;DHT22;5689;48.798;9.070;2023-08-12T14:59:44;37.60;81.90
11264;DHT22;5689;48.798;9.070;2023-08-12T15:02:17;35.30;85.10
11264;DHT22;5689;48.798;9.070;2023-08-12T15:04:45;35.70;85.90
11264;DHT22;5689;48.798;9.070;2023-08-12T15:07:13;35.70;85.00
11264;DHT22;5689;48.798;9.070;2023-08-12T15:09:43;35.90;82.90
11264;DHT22;5689;48.798;9.070;2023-08-12T15:12:14;36.90;80.60
11264;DHT22;5689;48.798;9.070;2023-08-12T15:14:43;34.00;87.00
11264;DHT22;5689;48.798;9.070;2023-08-12T15:17:11;32.00;91.80
11264;DHT22;5689;48.798;9.070;2023-08-12T15:19:39;30.50;95.00
11264;DHT22;5689;48.798;9.070;2023-08-12T15:22:07;29.90;96.40
11264;DHT22;5689;48.798;9.070;2023-08-12T15:24:36;29.00;98.60
11264;DHT22;5689;48.798;9.070;2023-08-12T15:27:04;28.70;99.90
11264;DHT22;5689;48.798;9.070;2023-08-12T15:29:32;28.40;99.90
11264;DHT22;5689;48.798;9.070;2023-08-12T15:32:02;28.00;99.90
11264;DHT22;5689;48.798;9.070;2023-08-12T15:34:30;27.90;99.90
11264;DHT22;5689;48.798;9.070;2023-08-12T15:36:58;28.00;99.90
11264;DHT22;5689;48.798;9.070;2023-08-12T15:39:26;27.70;99.90
11264;DHT22;5689;48.798;9.070;2023-08-12T15:41:54;27.70;99.90
11264;DHT22;5689;48.798;9.070;2023-08-12T15:44:22;27.80;99.90
11264;DHT22;5689;48.798;9.070;2023-08-12T15:46:50;27.70;99.90
11264;DHT22;5689;48.798;9.070;2023-08-12T15:49:20;27.60;99.90
11264;DHT22;5689;48.798;9.070;2023-08-12T15:51:48;27.10;99.90
11264;DHT22;5689;48.798;9.070;2023-08-12T15:54:16;26.70;99.90
11264;DHT22;5689;48.798;9.070;2023-08-12T15:56:44;26.70;99.90